sensor_id;sensor_type;location;lat;lon;timestamp;temperature;humidity
13880;DHT22;7010;48.200;16.332;2022-07-23T00:01:31;26.70;74.20
13880;DHT22;7010;48.200;16.332;2022-07-23T00:03:59;26.70;74.00
13880;DHT22;7010;48.200;16.332;2022-07-23T00:06:29;26.70;74.40
13880;DHT22;7010;48.200;16.332;2022-07-23T00:08:58;26.70;74.80
13880;DHT22;7010;48.200;16.332;2022-07-23T00:11:27;26.70;75.50
13880;DHT22;7010;48.200;16.332;2022-07-23T00:13:57;26.70;74.40
13880;DHT22;7010;48.200;16.332;2022-07-23T00:16:26;26.70;74.00
13880;DHT22;7010;48.200;16.332;2022-07-23T00:18:54;26.70;74.00
13880;DHT22;7010;48.200;16.332;2022-07-23T00:21:23;26.80;74.30
13880;DHT22;7010;48.200;16.332;2022-07-23T00:23:53;26.70;73.60
13880;DHT22;7010;48.200;16.332;2022-07-23T00:26:21;26.70;73.70
13880;DHT22;7010;48.200;16.332;2022-07-23T00:28:49;26.80;73.70
13880;DHT22;7010;48.200;16.332;2022-07-23T00:31:18;26.80;73.60
13880;DHT22;7010;48.200;16.332;2022-07-23T00:33:47;26.80;73.80
13880;DHT22;7010;48.200;16.332;2022-07-23T00:36:15;26.70;73.60
13880;DHT22;7010;48.200;16.332;2022-07-23T00:38:43;26.70;73.80
13880;DHT22;7010;48.200;16.332;2022-07-23T00:41:13;26.70;74.00
13880;DHT22;7010;48.200;16.332;2022-07-23T00:43:41;26.70;73.60
13880;DHT22;7010;48.200;16.332;2022-07-23T00:46:10;26.70;74.00
13880;DHT22;7010;48.200;16.332;2022-07-23T00:48:38;26.70;74.20
13880;DHT22;7010;48.200;16.332;2022-07-23T00:51:07;26.60;73.90
13880;DHT22;7010;48.200;16.332;2022-07-23T00:53:35;26.60;73.50
13880;DHT22;7010;48.200;16.332;2022-07-23T00:56:04;26.60;74.20
13880;DHT22;7010;48.200;16.332;2022-07-23T00:58:35;26.60;75.00
13880;DHT22;7010;48.200;16.332;2022-07-23T01:01:03;26.60;74.40
13880;DHT22;7010;48.200;16.332;2022-07-23T01:03:32;26.60;74.40
13880;DHT22;7010;48.200;16.332;2022-07-23T01:06:00;26.60;75.00
13880;DHT22;7010;48.200;16.332;2022-07-23T01:08:29;26.60;75.10
13880;DHT22;7010;48.200;16.332;2022-07-23T01:10:57;26.50;74.90
13880;DHT22;7010;48.200;16.332;2022-07-23T01:13:26;26.50;75.20
13880;DHT22;7010;48.200;16.332;2022-07-23T01:15:56;26.50;74.80
13880;DHT22;7010;48.200;16.332;2022-07-23T01:18:24;26.50;75.00
13880;DHT22;7010;48.200;16.332;2022-07-23T01:20:52;26.40;75.50
13880;DHT22;7010;48.200;16.332;2022-07-23T01:23:22;26.40;75.40
13880;DHT22;7010;48.200;16.332;2022-07-23T01:25:52;26.40;75.00
13880;DHT22;7010;48.200;16.332;2022-07-23T01:28:21;26.40;76.20
13880;DHT22;7010;48.200;16.332;2022-07-23T01:30:50;26.40;75.60
13880;DHT22;7010;48.200;16.332;2022-07-23T01:33:18;26.30;76.40
13880;DHT22;7010;48.200;16.332;2022-07-23T01:35:46;26.20;78.20
13880;DHT22;7010;48.200;16.332;2022-07-23T01:38:14;26.00;79.80
13880;DHT22;7010;48.200;16.332;2022-07-23T01:40:47;25.80;82.70
13880;DHT22;7010;48.200;16.332;2022-07-23T01:43:20;25.60;84.20
13880;DHT22;7010;48.200;16.332;2022-07-23T01:45:51;25.50;85.90
13880;DHT22;7010;48.200;16.332;2022-07-23T01:48:19;25.40;87.70
13880;DHT22;7010;48.200;16.332;2022-07-23T01:50:48;25.40;88.90
13880;DHT22;7010;48.200;16.332;2022-07-23T01:53:18;25.40;90.10
13880;DHT22;7010;48.200;16.332;2022-07-23T01:55:48;25.40;90.60
13880;DHT22;7010;48.200;16.332;2022-07-23T01:58:17;25.40;91.20
13880;DHT22;7010;48.200;16.332;2022-07-23T02:00:45;25.50;91.70
13880;DHT22;7010;48.200;16.332;2022-07-23T02:03:13;25.50;92.40
13880;DHT22;7010;48.200;16.332;2022-07-23T02:05:42;25.50;92.80
13880;DHT22;7010;48.200;16.332;2022-07-23T02:08:10;25.50;93.10
13880;DHT22;7010;48.200;16.332;2022-07-23T02:10:38;25.60;93.30
13880;DHT22;7010;48.200;16.332;2022-07-23T02:13:08;25.60;93.60
13880;DHT22;7010;48.200;16.332;2022-07-23T02:15:44;25.60;93.80
13880;DHT22;7010;48.200;16.332;2022-07-23T02:18:13;25.60;93.90
13880;DHT22;7010;48.200;16.332;2022-07-23T02:20:41;25.70;94.20
13880;DHT22;7010;48.200;16.332;2022-07-23T02:23:11;25.70;94.60
13880;DHT22;7010;48.200;16.332;2022-07-23T02:25:39;25.80;95.00
13880;DHT22;7010;48.200;16.332;2022-07-23T02:28:10;25.80;95.20
13880;DHT22;7010;48.200;16.332;2022-07-23T02:30:38;25.80;95.10
13880;DHT22;7010;48.200;16.332;2022-07-23T02:33:06;25.80;95.30
13880;DHT22;7010;48.200;16.332;2022-07-23T02:35:35;25.90;95.30
13880;DHT22;7010;48.200;16.332;2022-07-23T02:38:04;25.90;95.30
13880;DHT22;7010;48.200;16.332;2022-07-23T02:40:32;25.90;94.00
13880;DHT22;7010;48.200;16.332;2022-07-23T02:43:00;26.00;95.30
13880;DHT22;7010;48.200;16.332;2022-07-23T02:45:30;25.80;96.70
13880;DHT22;7010;48.200;16.332;2022-07-23T02:47:58;25.70;97.80
13880;DHT22;7010;48.200;16.332;2022-07-23T02:50:26;25.70;98.60
13880;DHT22;7010;48.200;16.332;2022-07-23T02:52:54;25.70;99.30
13880;DHT22;7010;48.200;16.332;2022-07-23T02:55:23;25.60;99.90
13880;DHT22;7010;48.200;16.332;2022-07-23T02:57:51;25.60;99.90
13880;DHT22;7010;48.200;16.332;2022-07-23T03:00:19;25.60;99.90
13880;DHT22;7010;48.200;16.332;2022-07-23T03:02:49;25.60;99.90
13880;DHT22;7010;48.200;16.332;2022-07-23T03:05:18;25.60;99.90
13880;DHT22;7010;48.200;16.332;2022-07-23T03:07:46;25.70;99.90
13880;DHT22;7010;48.200;16.332;2022-07-23T03:10:14;25.70;99.90
13880;DHT22;7010;48.200;16.332;2022-07-23T03:12:42;25.70;99.90
13880;DHT22;7010;48.200;16.332;2022-07-23T03:15:11;25.70;99.90
13880;DHT22;7010;48.200;16.332;2022-07-23T03:17:39;25.70;99.90
13880;DHT22;7010;48.200;16.332;2022-07-23T03:20:09;25.70;99.90
13880;DHT22;7010;48.200;16.332;2022-07-23T03:22:38;25.70;99.90
13880;DHT22;7010;48.200;16.332;2022-07-23T03:25:08;25.70;99.90
13880;DHT22;7010;48.200;16.332;2022-07-23T03:27:36;25.70;99.90
13880;DHT22;7010;48.200;16.332;2022-07-23T03:30:06;25.70;99.90
13880;DHT22;7010;48.200;16.332;2022-07-23T03:32:34;25.70;99.90
13880;DHT22;7010;48.200;16.332;2022-07-23T03:35:03;25.80;99.90
13880;DHT22;7010;48.200;16.332;2022-07-23T03:37:35;25.80;99.90
13880;DHT22;7010;48.200;16.332;2022-07-23T03:40:05;25.80;99.90
13880;DHT22;7010;48.200;16.332;2022-07-23T03:42:33;25.80;99.90
13880;DHT22;7010;48.200;16.332;2022-07-23T03:45:05;25.70;99.90
13880;DHT22;7010;48.200;16.332;2022-07-23T03:47:33;25.80;99.90
13880;DHT22;7010;48.200;16.332;2022-07-23T03:50:02;25.80;99.90
13880;DHT22;7010;48.200;16.332;2022-07-23T03:52:30;25.80;99.90
13880;DHT22;7010;48.200;16.332;2022-07-23T03:55:00;25.80;99.90
13880;DHT22;7010;48.200;16.332;2022-07-23T03:57:28;25.80;99.90
13880;DHT22;7010;48.200;16.332;2022-07-23T03:59:57;25.80;99.90
13880;DHT22;7010;48.200;16.332;2022-07-23T04:02:25;25.80;99.90
13880;DHT22;7010;48.200;16.332;2022-07-23T04:04:53;25.70;99.90
13880;DHT22;7010;48.200;16.332;2022-07-23T04:07:22;25.80;99.90
13880;DHT22;7010;48.200;16.332;2022-07-23T04:09:50;25.70;99.90
13880;DHT22;7010;48.200;16.332;2022-07-23T04:12:20;25.70;99.90
13880;DHT22;7010;48.200;16.332;2022-07-23T04:14:48;25.80;99.90
13880;DHT22;7010;48.200;16.332;2022-07-23T04:17:17;25.80;99.90
13880;DHT22;7010;48.200;16.332;2022-07-23T04:22:14;25.90;99.90
13880;DHT22;7010;48.200;16.332;2022-07-23T04:24:43;25.90;99.90
13880;DHT22;7010;48.200;16.332;2022-07-23T04:27:11;25.90;99.90
13880;DHT22;7010;48.200;16.332;2022-07-23T04:29:41;25.80;99.90
13880;DHT22;7010;48.200;16.332;2022-07-23T04:32:09;25.90;99.90
13880;DHT22;7010;48.200;16.332;2022-07-23T04:34:38;25.90;99.90
13880;DHT22;7010;48.200;16.332;2022-07-23T04:37:06;26.00;99.90
13880;DHT22;7010;48.200;16.332;2022-07-23T04:39:34;26.00;99.90
13880;DHT22;7010;48.200;16.332;2022-07-23T04:42:03;26.10;99.90
13880;DHT22;7010;48.200;16.332;2022-07-23T04:44:31;26.10;99.90
13880;DHT22;7010;48.200;16.332;2022-07-23T04:47:01;26.10;99.90
13880;DHT22;7010;48.200;16.332;2022-07-23T04:49:29;26.20;99.90
13880;DHT22;7010;48.200;16.332;2022-07-23T04:51:57;26.20;99.90
13880;DHT22;7010;48.200;16.332;2022-07-23T04:54:26;26.20;99.90
13880;DHT22;7010;48.200;16.332;2022-07-23T04:56:54;26.20;99.90
13880;DHT22;7010;48.200;16.332;2022-07-23T04:59:22;26.20;99.90
13880;DHT22;7010;48.200;16.332;2022-07-23T05:01:51;26.20;99.90
13880;DHT22;7010;48.200;16.332;2022-07-23T05:04:20;26.10;99.90
13880;DHT22;7010;48.200;16.332;2022-07-23T05:06:49;26.10;99.90
13880;DHT22;7010;48.200;16.332;2022-07-23T05:09:17;26.10;99.90
13880;DHT22;7010;48.200;16.332;2022-07-23T05:11:45;26.00;99.90
13880;DHT22;7010;48.200;16.332;2022-07-23T05:14:14;26.10;99.90
13880;DHT22;7010;48.200;16.332;2022-07-23T05:16:42;26.00;99.90
13880;DHT22;7010;48.200;16.332;2022-07-23T05:19:11;26.00;99.90
13880;DHT22;7010;48.200;16.332;2022-07-23T05:21:41;26.00;99.90
13880;DHT22;7010;48.200;16.332;2022-07-23T05:24:09;26.00;99.90
13880;DHT22;7010;48.200;16.332;2022-07-23T05:26:37;26.00;99.90
13880;DHT22;7010;48.200;16.332;2022-07-23T05:29:05;26.00;99.90
13880;DHT22;7010;48.200;16.332;2022-07-23T05:31:34;26.00;99.90
13880;DHT22;7010;48.200;16.332;2022-07-23T05:34:02;26.10;99.90
13880;DHT22;7010;48.200;16.332;2022-07-23T05:36:31;26.10;99.90
13880;DHT22;7010;48.200;16.332;2022-07-23T05:39:01;26.20;99.90
13880;DHT22;7010;48.200;16.332;2022-07-23T05:41:31;26.20;99.90
13880;DHT22;7010;48.200;16.332;2022-07-23T05:43:59;26.20;99.90
13880;DHT22;7010;48.200;16.332;2022-07-23T05:46:27;26.20;99.90
13880;DHT22;7010;48.200;16.332;2022-07-23T05:48:56;26.20;99.90
13880;DHT22;7010;48.200;16.332;2022-07-23T05:51:25;26.40;99.90
13880;DHT22;7010;48.200;16.332;2022-07-23T05:53:53;26.50;99.90
13880;DHT22;7010;48.200;16.332;2022-07-23T05:56:23;26.60;99.90
13880;DHT22;7010;48.200;16.332;2022-07-23T05:58:51;26.70;99.90
13880;DHT22;7010;48.200;16.332;2022-07-23T06:01:20;26.80;99.90
13880;DHT22;7010;48.200;16.332;2022-07-23T06:03:48;26.90;99.90
13880;DHT22;7010;48.200;16.332;2022-07-23T06:06:16;27.00;99.90
13880;DHT22;7010;48.200;16.332;2022-07-23T06:08:45;27.10;99.90
13880;DHT22;7010;48.200;16.332;2022-07-23T06:11:13;27.20;99.90
13880;DHT22;7010;48.200;16.332;2022-07-23T06:13:43;27.20;99.90
13880;DHT22;7010;48.200;16.332;2022-07-23T06:16:11;27.10;99.90
13880;DHT22;7010;48.200;16.332;2022-07-23T06:18:40;27.10;99.90
13880;DHT22;7010;48.200;16.332;2022-07-23T06:21:08;27.10;99.90
13880;DHT22;7010;48.200;16.332;2022-07-23T06:23:56;27.10;99.90
13880;DHT22;7010;48.200;16.332;2022-07-23T06:26:25;27.10;99.90
13880;DHT22;7010;48.200;16.332;2022-07-23T06:28:54;27.20;99.90
13880;DHT22;7010;48.200;16.332;2022-07-23T06:31:23;27.30;99.90
13880;DHT22;7010;48.200;16.332;2022-07-23T06:33:51;27.30;99.90
13880;DHT22;7010;48.200;16.332;2022-07-23T06:36:20;27.20;99.90
13880;DHT22;7010;48.200;16.332;2022-07-23T06:38:48;27.10;99.90
13880;DHT22;7010;48.200;16.332;2022-07-23T06:41:17;27.10;99.50
13880;DHT22;7010;48.200;16.332;2022-07-23T06:43:46;27.10;99.30
13880;DHT22;7010;48.200;16.332;2022-07-23T06:46:15;27.20;98.80
13880;DHT22;7010;48.200;16.332;2022-07-23T06:48:44;27.30;98.40
13880;DHT22;7010;48.200;16.332;2022-07-23T06:51:12;27.40;97.80
13880;DHT22;7010;48.200;16.332;2022-07-23T06:53:41;27.60;97.90
13880;DHT22;7010;48.200;16.332;2022-07-23T06:56:09;27.70;97.20
13880;DHT22;7010;48.200;16.332;2022-07-23T06:58:37;27.70;96.90
13880;DHT22;7010;48.200;16.332;2022-07-23T07:01:06;27.90;96.50
13880;DHT22;7010;48.200;16.332;2022-07-23T07:03:35;28.10;96.30
13880;DHT22;7010;48.200;16.332;2022-07-23T07:06:04;28.30;95.60
13880;DHT22;7010;48.200;16.332;2022-07-23T07:08:32;28.40;94.40
13880;DHT22;7010;48.200;16.332;2022-07-23T07:11:00;28.50;93.90
13880;DHT22;7010;48.200;16.332;2022-07-23T07:13:29;28.50;92.70
13880;DHT22;7010;48.200;16.332;2022-07-23T07:15:57;28.70;92.50
13880;DHT22;7010;48.200;16.332;2022-07-23T07:18:25;28.90;91.70
13880;DHT22;7010;48.200;16.332;2022-07-23T07:20:56;29.00;91.30
13880;DHT22;7010;48.200;16.332;2022-07-23T07:23:25;29.00;90.60
13880;DHT22;7010;48.200;16.332;2022-07-23T07:25:53;29.00;90.50
13880;DHT22;7010;48.200;16.332;2022-07-23T07:28:21;29.10;90.70
13880;DHT22;7010;48.200;16.332;2022-07-23T07:30:50;29.10;90.50
13880;DHT22;7010;48.200;16.332;2022-07-23T07:33:18;29.50;90.20
13880;DHT22;7010;48.200;16.332;2022-07-23T07:35:47;29.80;89.00
13880;DHT22;7010;48.200;16.332;2022-07-23T07:38:17;30.20;88.50
13880;DHT22;7010;48.200;16.332;2022-07-23T07:40:46;30.60;86.50
13880;DHT22;7010;48.200;16.332;2022-07-23T07:43:14;31.20;84.00
13880;DHT22;7010;48.200;16.332;2022-07-23T07:45:43;31.30;82.50
13880;DHT22;7010;48.200;16.332;2022-07-23T07:48:11;31.40;82.40
13880;DHT22;7010;48.200;16.332;2022-07-23T07:50:40;31.60;81.50
13880;DHT22;7010;48.200;16.332;2022-07-23T07:53:08;32.10;79.90
13880;DHT22;7010;48.200;16.332;2022-07-23T07:55:38;32.00;78.90
13880;DHT22;7010;48.200;16.332;2022-07-23T07:58:06;32.00;78.40
13880;DHT22;7010;48.200;16.332;2022-07-23T08:00:34;32.30;77.80
13880;DHT22;7010;48.200;16.332;2022-07-23T08:03:03;32.90;76.70
13880;DHT22;7010;48.200;16.332;2022-07-23T08:05:31;33.30;75.50
13880;DHT22;7010;48.200;16.332;2022-07-23T08:08:00;33.30;74.70
13880;DHT22;7010;48.200;16.332;2022-07-23T08:10:28;33.30;74.20
13880;DHT22;7010;48.200;16.332;2022-07-23T08:12:59;33.10;75.00
13880;DHT22;7010;48.200;16.332;2022-07-23T08:15:29;33.00;73.90
13880;DHT22;7010;48.200;16.332;2022-07-23T08:17:59;32.70;73.70
13880;DHT22;7010;48.200;16.332;2022-07-23T08:20:27;32.80;73.40
13880;DHT22;7010;48.200;16.332;2022-07-23T08:22:57;32.80;73.40
13880;DHT22;7010;48.200;16.332;2022-07-23T08:25:27;32.80;73.40
13880;DHT22;7010;48.200;16.332;2022-07-23T08:27:57;33.50;73.40
13880;DHT22;7010;48.200;16.332;2022-07-23T08:30:28;33.60;71.60
13880;DHT22;7010;48.200;16.332;2022-07-23T08:32:59;33.30;71.70
13880;DHT22;7010;48.200;16.332;2022-07-23T08:35:30;32.90;72.00
13880;DHT22;7010;48.200;16.332;2022-07-23T08:37:59;33.50;71.20
13880;DHT22;7010;48.200;16.332;2022-07-23T08:40:30;34.40;69.80
13880;DHT22;7010;48.200;16.332;2022-07-23T08:42:58;35.30;67.40
13880;DHT22;7010;48.200;16.332;2022-07-23T08:45:29;36.00;66.30
13880;DHT22;7010;48.200;16.332;2022-07-23T08:47:58;37.20;62.40
13880;DHT22;7010;48.200;16.332;2022-07-23T08:50:32;36.40;61.50
13880;DHT22;7010;48.200;16.332;2022-07-23T08:53:06;35.80;61.80
13880;DHT22;7010;48.200;16.332;2022-07-23T08:55:35;35.70;61.70
13880;DHT22;7010;48.200;16.332;2022-07-23T08:58:03;35.90;62.90
13880;DHT22;7010;48.200;16.332;2022-07-23T09:00:33;36.30;61.60
13880;DHT22;7010;48.200;16.332;2022-07-23T09:03:02;36.10;61.60
13880;DHT22;7010;48.200;16.332;2022-07-23T09:05:31;36.10;60.90
13880;DHT22;7010;48.200;16.332;2022-07-23T09:08:10;35.40;61.40
13880;DHT22;7010;48.200;16.332;2022-07-23T09:10:47;34.50;63.60
13880;DHT22;7010;48.200;16.332;2022-07-23T09:13:33;34.60;64.60
13880;DHT22;7010;48.200;16.332;2022-07-23T09:16:05;34.30;65.20
13880;DHT22;7010;48.200;16.332;2022-07-23T09:18:40;34.90;64.00
13880;DHT22;7010;48.200;16.332;2022-07-23T09:21:18;35.60;62.50
13880;DHT22;7010;48.200;16.332;2022-07-23T09:23:50;36.40;62.10
13880;DHT22;7010;48.200;16.332;2022-07-23T09:26:35;37.10;60.30
13880;DHT22;7010;48.200;16.332;2022-07-23T09:29:09;36.80;59.60
13880;DHT22;7010;48.200;16.332;2022-07-23T09:31:51;36.90;59.90
13880;DHT22;7010;48.200;16.332;2022-07-23T09:34:21;36.80;59.80
13880;DHT22;7010;48.200;16.332;2022-07-23T09:36:52;36.20;58.20
13880;DHT22;7010;48.200;16.332;2022-07-23T09:39:28;36.20;59.80
13880;DHT22;7010;48.200;16.332;2022-07-23T09:41:57;36.40;58.10
13880;DHT22;7010;48.200;16.332;2022-07-23T09:44:26;36.30;58.80
13880;DHT22;7010;48.200;16.332;2022-07-23T09:46:59;36.20;59.10
13880;DHT22;7010;48.200;16.332;2022-07-23T09:49:28;36.60;58.50
13880;DHT22;7010;48.200;16.332;2022-07-23T09:51:58;36.70;57.30
13880;DHT22;7010;48.200;16.332;2022-07-23T09:54:31;36.50;57.30
13880;DHT22;7010;48.200;16.332;2022-07-23T09:57:02;36.40;58.00
13880;DHT22;7010;48.200;16.332;2022-07-23T09:59:34;35.70;58.00
13880;DHT22;7010;48.200;16.332;2022-07-23T10:02:05;35.10;59.40
13880;DHT22;7010;48.200;16.332;2022-07-23T10:04:34;35.10;60.10
13880;DHT22;7010;48.200;16.332;2022-07-23T10:07:06;36.00;60.30
13880;DHT22;7010;48.200;16.332;2022-07-23T10:09:37;36.70;59.10
13880;DHT22;7010;48.200;16.332;2022-07-23T10:12:10;37.60;58.50
13880;DHT22;7010;48.200;16.332;2022-07-23T10:14:59;38.60;56.70
13880;DHT22;7010;48.200;16.332;2022-07-23T10:17:29;39.50;55.80
13880;DHT22;7010;48.200;16.332;2022-07-23T10:19:58;39.50;56.60
13880;DHT22;7010;48.200;16.332;2022-07-23T10:22:29;40.10;54.20
13880;DHT22;7010;48.200;16.332;2022-07-23T10:25:08;40.40;53.50
13880;DHT22;7010;48.200;16.332;2022-07-23T10:27:58;39.80;52.70
13880;DHT22;7010;48.200;16.332;2022-07-23T10:30:36;39.80;53.30
13880;DHT22;7010;48.200;16.332;2022-07-23T10:33:21;39.40;53.30
13880;DHT22;7010;48.200;16.332;2022-07-23T10:35:57;38.40;54.20
13880;DHT22;7010;48.200;16.332;2022-07-23T10:38:32;38.20;54.80
13880;DHT22;7010;48.200;16.332;2022-07-23T10:41:04;38.40;55.10
13880;DHT22;7010;48.200;16.332;2022-07-23T10:43:33;38.30;55.10
13880;DHT22;7010;48.200;16.332;2022-07-23T10:46:20;37.60;55.30
13880;DHT22;7010;48.200;16.332;2022-07-23T10:49:21;36.90;56.10
13880;DHT22;7010;48.200;16.332;2022-07-23T10:52:17;36.90;56.60
13880;DHT22;7010;48.200;16.332;2022-07-23T10:54:48;36.60;56.90
13880;DHT22;7010;48.200;16.332;2022-07-23T10:57:18;36.20;57.00
13880;DHT22;7010;48.200;16.332;2022-07-23T11:02:54;36.10;57.90
13880;DHT22;7010;48.200;16.332;2022-07-23T11:05:26;36.00;58.10
13880;DHT22;7010;48.200;16.332;2022-07-23T11:08:24;35.70;58.90
13880;DHT22;7010;48.200;16.332;2022-07-23T11:11:08;35.70;58.90
13880;DHT22;7010;48.200;16.332;2022-07-23T11:13:42;35.60;59.20
13880;DHT22;7010;48.200;16.332;2022-07-23T11:16:25;35.70;59.60
13880;DHT22;7010;48.200;16.332;2022-07-23T11:18:59;35.70;59.40
13880;DHT22;7010;48.200;16.332;2022-07-23T11:21:49;35.70;59.70
13880;DHT22;7010;48.200;16.332;2022-07-23T11:24:19;35.60;59.50
13880;DHT22;7010;48.200;16.332;2022-07-23T11:27:02;35.10;60.50
13880;DHT22;7010;48.200;16.332;2022-07-23T11:29:43;35.10;60.60
13880;DHT22;7010;48.200;16.332;2022-07-23T11:32:28;35.40;60.60
13880;DHT22;7010;48.200;16.332;2022-07-23T11:34:56;36.00;59.60
13880;DHT22;7010;48.200;16.332;2022-07-23T11:37:35;35.80;59.20
13880;DHT22;7010;48.200;16.332;2022-07-23T11:40:07;35.40;60.40
13880;DHT22;7010;48.200;16.332;2022-07-23T11:42:37;35.70;60.00
13880;DHT22;7010;48.200;16.332;2022-07-23T11:45:07;36.10;59.90
13880;DHT22;7010;48.200;16.332;2022-07-23T11:47:36;36.40;58.90
13880;DHT22;7010;48.200;16.332;2022-07-23T11:50:06;36.90;58.70
13880;DHT22;7010;48.200;16.332;2022-07-23T11:52:36;37.20;58.60
13880;DHT22;7010;48.200;16.332;2022-07-23T11:55:06;37.40;58.30
13880;DHT22;7010;48.200;16.332;2022-07-23T11:57:38;37.20;58.40
13880;DHT22;7010;48.200;16.332;2022-07-23T12:00:08;37.00;58.80
13880;DHT22;7010;48.200;16.332;2022-07-23T12:02:38;36.70;58.70
13880;DHT22;7010;48.200;16.332;2022-07-23T12:05:07;36.80;58.60
13880;DHT22;7010;48.200;16.332;2022-07-23T12:07:40;36.30;59.00
13880;DHT22;7010;48.200;16.332;2022-07-23T12:10:12;35.40;59.90
13880;DHT22;7010;48.200;16.332;2022-07-23T12:12:43;35.10;60.90
13880;DHT22;7010;48.200;16.332;2022-07-23T12:15:14;34.80;60.90
13880;DHT22;7010;48.200;16.332;2022-07-23T12:17:43;34.40;61.50
13880;DHT22;7010;48.200;16.332;2022-07-23T12:20:20;34.20;62.10
13880;DHT22;7010;48.200;16.332;2022-07-23T12:22:52;34.10;62.10
13880;DHT22;7010;48.200;16.332;2022-07-23T12:25:23;33.90;62.20
13880;DHT22;7010;48.200;16.332;2022-07-23T12:27:59;33.40;62.80
13880;DHT22;7010;48.200;16.332;2022-07-23T12:30:31;33.20;63.50
13880;DHT22;7010;48.200;16.332;2022-07-23T12:33:01;33.40;63.30
13880;DHT22;7010;48.200;16.332;2022-07-23T12:35:32;33.50;63.00
13880;DHT22;7010;48.200;16.332;2022-07-23T12:38:03;33.40;62.50
13880;DHT22;7010;48.200;16.332;2022-07-23T12:40:33;33.30;62.80
13880;DHT22;7010;48.200;16.332;2022-07-23T12:43:03;32.80;63.20
13880;DHT22;7010;48.200;16.332;2022-07-23T12:45:44;32.50;63.90
13880;DHT22;7010;48.200;16.332;2022-07-23T12:48:24;32.20;64.50
13880;DHT22;7010;48.200;16.332;2022-07-23T12:50:57;32.00;64.50
13880;DHT22;7010;48.200;16.332;2022-07-23T12:53:29;31.90;64.20
13880;DHT22;7010;48.200;16.332;2022-07-23T12:56:03;31.80;64.00
13880;DHT22;7010;48.200;16.332;2022-07-23T12:58:47;31.80;63.70
13880;DHT22;7010;48.200;16.332;2022-07-23T13:01:25;31.90;64.40
13880;DHT22;7010;48.200;16.332;2022-07-23T13:03:57;31.70;61.30
13880;DHT22;7010;48.200;16.332;2022-07-23T13:06:26;31.50;60.80
13880;DHT22;7010;48.200;16.332;2022-07-23T13:08:56;31.30;60.20
13880;DHT22;7010;48.200;16.332;2022-07-23T13:11:26;31.40;59.80
13880;DHT22;7010;48.200;16.332;2022-07-23T13:13:57;31.40;58.90
13880;DHT22;7010;48.200;16.332;2022-07-23T13:16:32;31.50;58.90
13880;DHT22;7010;48.200;16.332;2022-07-23T13:19:01;31.80;58.70
13880;DHT22;7010;48.200;16.332;2022-07-23T13:21:30;32.00;58.50
13880;DHT22;7010;48.200;16.332;2022-07-23T13:24:00;32.30;58.20
13880;DHT22;7010;48.200;16.332;2022-07-23T13:26:33;32.40;57.60
13880;DHT22;7010;48.200;16.332;2022-07-23T13:29:01;32.50;57.70
13880;DHT22;7010;48.200;16.332;2022-07-23T13:31:30;32.50;57.40
13880;DHT22;7010;48.200;16.332;2022-07-23T13:33:59;32.50;57.50
13880;DHT22;7010;48.200;16.332;2022-07-23T13:36:27;32.60;58.00
13880;DHT22;7010;48.200;16.332;2022-07-23T13:38:55;32.80;57.00
13880;DHT22;7010;48.200;16.332;2022-07-23T13:41:25;32.70;57.10
13880;DHT22;7010;48.200;16.332;2022-07-23T13:43:53;32.60;57.20
13880;DHT22;7010;48.200;16.332;2022-07-23T13:46:24;32.50;57.20
13880;DHT22;7010;48.200;16.332;2022-07-23T13:48:52;32.20;57.50
13880;DHT22;7010;48.200;16.332;2022-07-23T13:51:21;32.10;57.60
13880;DHT22;7010;48.200;16.332;2022-07-23T13:53:51;31.90;58.00
13880;DHT22;7010;48.200;16.332;2022-07-23T13:56:20;32.00;58.10
13880;DHT22;7010;48.200;16.332;2022-07-23T13:58:50;32.20;58.10
13880;DHT22;7010;48.200;16.332;2022-07-23T14:01:19;32.40;57.90
13880;DHT22;7010;48.200;16.332;2022-07-23T14:03:48;32.50;57.90
13880;DHT22;7010;48.200;16.332;2022-07-23T14:06:16;32.50;58.30
13880;DHT22;7010;48.200;16.332;2022-07-23T14:08:55;32.40;57.90
13880;DHT22;7010;48.200;16.332;2022-07-23T14:11:23;32.40;57.40
13880;DHT22;7010;48.200;16.332;2022-07-23T14:13:56;32.30;57.00
13880;DHT22;7010;48.200;16.332;2022-07-23T14:16:27;32.30;57.00
13880;DHT22;7010;48.200;16.332;2022-07-23T14:18:56;32.50;56.50
13880;DHT22;7010;48.200;16.332;2022-07-23T14:21:24;32.50;55.40
13880;DHT22;7010;48.200;16.332;2022-07-23T14:23:53;32.50;55.00
13880;DHT22;7010;48.200;16.332;2022-07-23T14:26:21;32.50;54.80
13880;DHT22;7010;48.200;16.332;2022-07-23T14:28:50;32.50;55.00
13880;DHT22;7010;48.200;16.332;2022-07-23T14:31:21;32.50;53.60
13880;DHT22;7010;48.200;16.332;2022-07-23T14:33:49;32.60;53.90
13880;DHT22;7010;48.200;16.332;2022-07-23T14:36:22;32.50;53.10
13880;DHT22;7010;48.200;16.332;2022-07-23T14:38:51;32.50;53.90
13880;DHT22;7010;48.200;16.332;2022-07-23T14:41:19;32.80;53.60
13880;DHT22;7010;48.200;16.332;2022-07-23T14:43:53;32.80;53.60
13880;DHT22;7010;48.200;16.332;2022-07-23T14:46:24;32.70;53.70
13880;DHT22;7010;48.200;16.332;2022-07-23T14:48:52;33.00;53.90
13880;DHT22;7010;48.200;16.332;2022-07-23T14:51:21;33.20;53.60
13880;DHT22;7010;48.200;16.332;2022-07-23T14:53:52;33.30;53.80
13880;DHT22;7010;48.200;16.332;2022-07-23T14:56:20;33.30;53.90
13880;DHT22;7010;48.200;16.332;2022-07-23T14:58:48;33.40;53.90
13880;DHT22;7010;48.200;16.332;2022-07-23T15:01:17;33.40;54.20
13880;DHT22;7010;48.200;16.332;2022-07-23T15:03:46;33.40;55.20
13880;DHT22;7010;48.200;16.332;2022-07-23T15:06:15;33.50;55.80
13880;DHT22;7010;48.200;16.332;2022-07-23T15:08:44;33.40;56.20
13880;DHT22;7010;48.200;16.332;2022-07-23T15:11:13;33.10;56.20
13880;DHT22;7010;48.200;16.332;2022-07-23T15:13:42;33.10;56.70
13880;DHT22;7010;48.200;16.332;2022-07-23T15:16:13;33.00;57.60
13880;DHT22;7010;48.200;16.332;2022-07-23T15:18:41;32.70;58.20
13880;DHT22;7010;48.200;16.332;2022-07-23T15:21:11;32.50;58.70
13880;DHT22;7010;48.200;16.332;2022-07-23T15:23:40;32.50;59.20
13880;DHT22;7010;48.200;16.332;2022-07-23T15:26:10;32.50;59.20
13880;DHT22;7010;48.200;16.332;2022-07-23T15:28:41;32.30;59.30
13880;DHT22;7010;48.200;16.332;2022-07-23T15:31:10;32.10;59.00
13880;DHT22;7010;48.200;16.332;2022-07-23T15:33:39;32.30;58.70
13880;DHT22;7010;48.200;16.332;2022-07-23T15:36:08;32.30;58.60
13880;DHT22;7010;48.200;16.332;2022-07-23T15:38:39;32.30;58.60
13880;DHT22;7010;48.200;16.332;2022-07-23T15:41:09;32.30;59.00
13880;DHT22;7010;48.200;16.332;2022-07-23T15:43:38;32.30;58.90
13880;DHT22;7010;48.200;16.332;2022-07-23T15:46:07;32.10;59.20
13880;DHT22;7010;48.200;16.332;2022-07-23T15:48:36;32.00;59.30
13880;DHT22;7010;48.200;16.332;2022-07-23T15:51:05;31.90;60.20
13880;DHT22;7010;48.200;16.332;2022-07-23T15:53:34;31.90;59.60
13880;DHT22;7010;48.200;16.332;2022-07-23T15:56:06;31.90;59.80